Time;durP1;ratioP1;P1;durP2;ratioP2;P2;SDS_P1;SDS_P2;PMS_P1;PMS_P2;Temp;Humidity;BMP_temperature;BMP_pressure;BME280_temperature;BME280_humidity;BME280_pressure;Samples;Min_cycle;Max_cycle;Signal;HPM_P1;HPM_P2
2022/03/16 00:01:18;;;;;;;36.10;28.17;;;;;;;5.88;84.78;102309.06;5270373;28;20493;-75
2022/03/16 00:03:49;;;;;;;39.60;29.80;;;;;;;5.96;84.64;102308.09;5270413;28;20522;-74
2022/03/16 00:06:21;;;;;;;34.17;27.73;;;;;;;6.10;83.80;102308.75;5269856;28;20040;-74
2022/03/16 00:08:52;;;;;;;36.50;30.20;;;;;;;5.93;84.72;102304.66;5271952;28;20082;-75
2022/03/16 00:11:23;;;;;;;34.07;30.10;;;;;;;6.04;83.70;102317.47;5273275;28;20037;-75
2022/03/16 00:13:54;;;;;;;33.57;27.63;;;;;;;5.97;84.35;102318.47;5270329;28;20103;-75
2022/03/16 00:16:26;;;;;;;33.60;27.53;;;;;;;5.92;84.55;102315.06;5272981;28;20634;-75
2022/03/16 00:18:57;;;;;;;33.93;28.67;;;;;;;5.77;84.51;102322.25;5274185;28;20031;-75
2022/03/16 00:21:28;;;;;;;38.33;29.67;;;;;;;5.62;85.60;102312.94;5272187;28;20548;-75
2022/03/16 00:24:00;;;;;;;35.13;29.73;;;;;;;5.81;84.95;102312.66;5274556;28;20109;-75
2022/03/16 00:26:31;;;;;;;38.20;30.73;;;;;;;5.60;86.51;102322.53;5274725;28;20028;-75
2022/03/16 00:29:03;;;;;;;36.10;28.83;;;;;;;5.78;85.44;102316.16;5274227;28;20032;-76
2022/03/16 00:31:34;;;;;;;36.23;31.70;;;;;;;5.64;87.29;102315.50;5274142;28;20024;-74
2022/03/16 00:34:05;;;;;;;36.77;32.37;;;;;;;5.68;87.83;102330.19;5274159;28;20097;-75
2022/03/16 00:36:36;;;;;;;35.47;31.67;;;;;;;5.63;88.60;102329.41;5274953;28;20017;-74
2022/03/16 00:39:08;;;;;;;40.33;31.73;;;;;;;5.56;88.93;102324.31;5272530;28;20201;-75
2022/03/16 00:41:39;;;;;;;40.87;31.53;;;;;;;5.65;88.43;102323.31;5274572;28;20016;-75
2022/03/16 00:44:10;;;;;;;42.93;34.87;;;;;;;5.68;88.36;102312.00;5273460;28;20103;-74
2022/03/16 00:46:43;;;;;;;38.00;30.83;;;;;;;5.79;89.05;102312.69;5278379;28;20040;-74
2022/03/16 00:49:14;;;;;;;35.60;30.60;;;;;;;5.49;88.85;102301.00;5274323;28;20028;-74
2022/03/16 00:51:45;;;;;;;39.10;30.27;;;;;;;5.71;88.06;102309.34;5274503;28;20024;-74
2022/03/16 00:54:16;;;;;;;35.43;30.13;;;;;;;5.70;88.63;102315.44;5272977;28;20308;-74
2022/03/16 00:56:48;;;;;;;40.27;29.70;;;;;;;5.76;88.30;102320.53;5273001;28;20031;-74
2022/03/16 00:59:19;;;;;;;34.40;30.63;;;;;;;5.76;88.55;102322.28;5271757;28;20542;-74
2022/03/16 01:01:50;;;;;;;32.50;28.47;;;;;;;5.86;87.39;102315.19;5274087;28;20479;-75
2022/03/16 01:04:23;;;;;;;36.13;30.17;;;;;;;5.87;87.08;102309.97;5274089;28;20030;-75
2022/03/16 01:06:54;;;;;;;38.47;31.57;;;;;;;5.77;87.34;102303.19;5273799;28;20033;-74
2022/03/16 01:09:25;;;;;;;34.77;27.30;;;;;;;5.60;87.08;102306.06;5273770;28;20324;-75
2022/03/16 01:11:56;;;;;;;36.60;28.97;;;;;;;5.67;86.88;102310.28;5273927;28;20028;-74
2022/03/16 01:14:28;;;;;;;38.90;29.90;;;;;;;5.66;87.55;102308.56;5272486;28;20080;-75
2022/03/16 01:16:59;;;;;;;38.57;30.80;;;;;;;5.64;87.66;102305.09;5271890;28;20033;-75
2022/03/16 01:19:31;;;;;;;32.10;27.87;;;;;;;5.55;88.41;102296.56;5272678;28;20029;-75
2022/03/16 01:22:03;;;;;;;36.67;29.00;;;;;;;5.38;89.11;102308.94;5272070;28;20035;-75
2022/03/16 01:24:35;;;;;;;31.97;27.77;;;;;;;5.45;89.01;102297.59;5273462;28;20021;-75
2022/03/16 01:27:06;;;;;;;38.07;29.80;;;;;;;5.48;88.70;102304.50;5273812;28;20046;-75
2022/03/16 01:29:37;;;;;;;34.87;29.13;;;;;;;5.52;88.40;102293.16;5271276;28;20051;-75
2022/03/16 01:32:08;;;;;;;35.23;28.43;;;;;;;5.46;89.00;102301.94;5273463;28;20135;-74
2022/03/16 01:34:40;;;;;;;35.33;27.87;;;;;;;5.33;89.25;102294.31;5273635;28;20025;-74
2022/03/16 01:37:11;;;;;;;34.13;28.40;;;;;;;5.29;89.26;102305.63;5273044;28;20021;-74
2022/03/16 01:39:42;;;;;;;35.23;29.60;;;;;;;5.30;88.71;102306.47;5271736;28;20021;-74
2022/03/16 01:42:14;;;;;;;34.43;27.53;;;;;;;5.27;88.89;102296.97;5273447;28;20029;-74
2022/03/16 01:44:48;;;;;;;34.57;28.37;;;;;;;5.40;88.79;102283.81;5270997;28;20032;-74
2022/03/16 01:47:21;;;;;;;36.03;28.92;;;;;;;5.34;88.61;102282.19;5271969;28;20029;-74
2022/03/16 01:49:55;;;;;;;33.80;27.70;;;;;;;5.47;88.36;102280.25;5273680;28;20048;-74
2022/03/16 01:52:28;;;;;;;35.63;28.23;;;;;;;5.29;89.87;102265.78;5271611;28;20021;-74
2022/03/16 01:55:04;;;;;;;30.50;27.17;;;;;;;5.23;90.04;102266.75;5272856;28;20775;-75
2022/03/16 01:57:40;;;;;;;35.23;29.60;;;;;;;5.03;91.11;102272.19;5272619;28;20294;-74
2022/03/16 02:00:12;;;;;;;36.17;27.17;;;;;;;5.00;90.94;102275.72;5270947;28;20039;-74
2022/03/16 02:02:43;;;;;;;29.80;24.47;;;;;;;5.16;90.76;102268.56;5271553;28;20024;-74
2022/03/16 02:05:15;;;;;;;28.93;24.07;;;;;;;5.27;90.15;102264.97;5271470;28;20655;-74
2022/03/16 02:07:47;;;;;;;31.40;25.77;;;;;;;5.20;90.37;102257.25;5271302;28;20094;-75
2022/03/16 02:10:20;;;;;;;33.53;25.93;;;;;;;5.15;90.83;102256.44;5273076;28;20071;-74
2022/03/16 02:12:52;;;;;;;30.37;25.03;;;;;;;5.08;91.22;102258.28;5272015;28;20827;-74
2022/03/16 02:15:24;;;;;;;33.23;25.20;;;;;;;5.07;91.30;102259.16;5269314;28;20053;-74
2022/03/16 02:17:56;;;;;;;30.53;25.20;;;;;;;5.04;90.73;102241.03;5271464;28;20082;-74
2022/03/16 02:20:28;;;;;;;29.77;24.27;;;;;;;4.97;91.48;102244.59;5271302;28;20471;-75
2022/03/16 02:23:01;;;;;;;31.63;25.37;;;;;;;4.93;91.37;102250.69;5271266;28;20021;-75
2022/03/16 02:25:48;;;;;;;32.63;24.30;;;;;;;4.83;92.17;102249.97;5270492;28;20502;-74
2022/03/16 02:28:20;;;;;;;29.40;24.83;;;;;;;4.76;92.81;102259.56;5271185;28;20020;-74
2022/03/16 02:30:52;;;;;;;32.30;26.63;;;;;;;4.75;93.01;102257.00;5271285;28;20016;-74
2022/03/16 02:33:23;;;;;;;29.73;25.27;;;;;;;4.72;93.42;102257.88;5270067;28;20200;-74
2022/03/16 02:35:54;;;;;;;34.40;26.90;;;;;;;4.75;93.24;102252.63;5271506;28;20031;-74
2022/03/16 02:38:26;;;;;;;33.17;26.80;;;;;;;4.60;94.70;102259.75;5270982;28;20092;-75
2022/03/16 02:40:57;;;;;;;31.93;25.63;;;;;;;4.56;94.22;102259.78;5271110;28;20044;-75
2022/03/16 02:43:28;;;;;;;32.57;25.40;;;;;;;4.63;93.86;102253.66;5271653;28;20024;-75
2022/03/16 02:46:00;;;;;;;34.80;26.17;;;;;;;4.61;94.25;102260.59;5270010;28;20039;-75
2022/03/16 02:48:31;;;;;;;31.97;25.53;;;;;;;4.56;94.24;102258.06;5270073;28;20329;-75
2022/03/16 02:51:03;;;;;;;28.87;25.03;;;;;;;4.52;94.04;102260.72;5270958;28;20478;-75
2022/03/16 02:53:34;;;;;;;29.60;24.80;;;;;;;4.63;93.17;102232.91;5269809;28;20025;-75
2022/03/16 02:56:05;;;;;;;30.70;25.00;;;;;;;4.63;93.12;102237.22;5269369;28;20036;-75
2022/03/16 02:58:36;;;;;;;29.73;23.63;;;;;;;4.70;92.80;102244.06;5271200;28;20052;-75
2022/03/16 03:01:08;;;;;;;31.73;23.93;;;;;;;4.67;92.54;102239.78;5268605;28;20166;-74
2022/03/16 03:03:39;;;;;;;28.00;23.87;;;;;;;4.63;92.48;102237.22;5270166;28;20035;-75
2022/03/16 03:06:10;;;;;;;29.03;25.03;;;;;;;4.50;93.49;102224.41;5270414;28;20035;-74
2022/03/16 03:08:41;;;;;;;30.07;24.60;;;;;;;4.52;93.42;102230.41;5271102;28;20032;-74
2022/03/16 03:11:13;;;;;;;27.63;23.87;;;;;;;4.38;94.49;102224.56;5271413;28;20058;-74
2022/03/16 03:13:44;;;;;;;31.90;25.77;;;;;;;4.40;94.62;102222.81;5268428;28;20055;-74
2022/03/16 03:16:15;;;;;;;29.13;24.77;;;;;;;4.26;94.77;102216.00;5270295;28;20032;-74
2022/03/16 03:18:46;;;;;;;28.87;25.50;;;;;;;4.26;95.50;102228.16;5270577;28;20471;-74
2022/03/16 03:21:18;;;;;;;30.87;27.57;;;;;;;4.33;95.85;102235.81;5270887;28;20513;-74
2022/03/16 03:23:49;;;;;;;31.03;25.93;;;;;;;4.20;95.10;102229.06;5270632;28;20060;-74
2022/03/16 03:26:20;;;;;;;32.90;27.40;;;;;;;4.24;96.11;102251.50;5270553;28;20040;-74
2022/03/16 03:28:51;;;;;;;32.90;26.67;;;;;;;4.28;95.74;102237.63;5252523;28;20410;-74
2022/03/16 03:31:23;;;;;;;35.30;25.50;;;;;;;4.21;95.48;102239.41;5270229;28;20427;-74
2022/03/16 03:33:54;;;;;;;29.87;24.07;;;;;;;4.37;94.89;102244.44;5271038;28;20495;-74
2022/03/16 03:36:25;;;;;;;30.27;24.63;;;;;;;4.22;94.69;102222.97;5269926;28;20017;-74
2022/03/16 03:38:57;;;;;;;28.20;25.20;;;;;;;4.28;95.79;102242.81;5270856;28;20017;-74
2022/03/16 03:41:28;;;;;;;30.60;24.97;;;;;;;4.28;95.74;102237.63;5270529;28;20036;-75
2022/03/16 03:44:00;;;;;;;31.37;24.40;;;;;;;4.06;95.95;102230.06;5269690;28;20228;-75
2022/03/16 03:46:31;;;;;;;28.73;24.33;;;;;;;4.11;96.33;102238.66;5278096;28;20230;-74
2022/03/16 03:49:02;;;;;;;29.60;24.07;;;;;;;4.13;96.71;102240.38;5274830;28;20099;-75
2022/03/16 03:51:33;;;;;;;28.93;24.50;;;;;;;3.98;97.22;102221.47;5273630;28;20479;-74
2022/03/16 03:54:05;;;;;;;29.57;23.80;;;;;;;3.98;97.65;102231.84;5274666;28;20032;-74
2022/03/16 03:56:36;;;;;;;27.07;22.67;;;;;;;4.07;97.17;102236.97;5273523;28;20033;-74
2022/03/16 03:59:07;;;;;;;31.20;24.37;;;;;;;4.09;96.62;102232.63;5273502;28;20848;-75
2022/03/16 04:01:38;;;;;;;28.83;24.03;;;;;;;4.04;96.70;102234.41;5274915;28;20028;-75
2022/03/16 04:04:10;;;;;;;30.90;25.63;;;;;;;4.06;97.20;102240.44;5274113;28;20060;-74
2022/03/16 04:06:41;;;;;;;30.83;25.50;;;;;;;4.05;97.74;102243.88;5274729;28;20024;-74
2022/03/16 04:09:12;;;;;;;29.90;24.60;;;;;;;3.97;98.15;102232.75;5273763;28;20032;-74
2022/03/16 04:11:43;;;;;;;34.43;28.20;;;;;;;3.86;98.29;102217.28;5273109;28;20459;-74
2022/03/16 04:14:16;;;;;;;30.33;25.17;;;;;;;4.03;97.82;102227.50;5273453;28;20124;-74
2022/03/16 04:16:47;;;;;;;31.60;26.30;;;;;;;4.00;98.39;102235.28;5273794;28;20024;-74
2022/03/16 04:19:18;;;;;;;32.47;26.57;;;;;;;3.94;98.10;102212.03;5272590;28;20020;-74
2022/03/16 04:21:50;;;;;;;30.13;26.80;;;;;;;4.03;98.06;102229.25;5273928;28;20028;-74
2022/03/16 04:24:21;;;;;;;29.40;24.47;;;;;;;4.06;98.18;102224.88;5274168;28;20392;-74
2022/03/16 04:26:53;;;;;;;33.37;27.20;;;;;;;3.91;98.98;102227.63;5274142;28;20083;-74
2022/03/16 04:29:24;;;;;;;33.17;27.70;;;;;;;3.96;99.43;102215.47;5272667;28;20495;-74
2022/03/16 04:31:57;;;;;;;32.00;28.50;;;;;;;3.97;99.17;102217.19;5273998;28;20027;-73
2022/03/16 04:34:28;;;;;;;33.10;26.67;;;;;;;3.96;98.69;102220.66;5273792;28;20390;-75
2022/03/16 04:36:59;;;;;;;36.40;31.03;;;;;;;3.87;98.98;102214.66;5273225;28;20078;-75
2022/03/16 04:39:31;;;;;;;34.67;29.40;;;;;;;3.90;99.31;102225.88;5274401;28;20036;-74
2022/03/16 04:42:03;;;;;;;34.27;29.10;;;;;;;3.91;99.52;102225.88;5273332;28;20020;-74
2022/03/16 04:44:34;;;;;;;35.87;28.40;;;;;;;3.94;99.08;102227.59;5270979;28;20073;-74
2022/03/16 04:47:05;;;;;;;34.70;28.80;;;;;;;3.83;99.61;102207.81;5272038;28;20107;-74
2022/03/16 04:49:37;;;;;;;32.00;28.33;;;;;;;3.96;99.26;102215.47;5271852;28;20032;-74
2022/03/16 04:52:08;;;;;;;37.20;29.40;;;;;;;3.92;99.54;102214.66;5272170;28;20074;-74
2022/03/16 04:54:39;;;;;;;34.23;29.37;;;;;;;3.87;99.64;102219.00;5272160;28;20032;-74
2022/03/16 04:57:10;;;;;;;32.83;27.97;;;;;;;3.90;99.31;102216.38;5274030;28;20421;-75
2022/03/16 04:59:42;;;;;;;33.07;27.83;;;;;;;3.99;99.56;102223.22;5274504;28;20028;-74
2022/03/16 05:02:13;;;;;;;35.00;30.17;;;;;;;3.90;99.77;102231.06;5272924;28;20023;-74
2022/03/16 05:04:44;;;;;;;34.33;29.80;;;;;;;3.85;100.00;102232.00;5272495;28;20486;-74
2022/03/16 05:07:15;;;;;;;36.17;30.80;;;;;;;3.86;100.00;102236.28;5272981;28;20378;-74
2022/03/16 05:09:47;;;;;;;34.17;29.60;;;;;;;3.88;100.00;102233.69;5273471;28;20021;-74
2022/03/16 05:12:18;;;;;;;36.13;28.87;;;;;;;3.72;100.00;102218.28;5272872;28;20024;-74
2022/03/16 05:14:49;;;;;;;35.10;29.40;;;;;;;3.90;100.00;102228.47;5272489;28;20045;-74
2022/03/16 05:17:20;;;;;;;37.37;29.77;;;;;;;3.87;100.00;102227.63;5270658;28;20029;-74
2022/03/16 05:19:52;;;;;;;31.30;27.90;;;;;;;3.86;100.00;102230.25;5273365;28;20028;-74
2022/03/16 05:22:23;;;;;;;32.80;27.80;;;;;;;3.85;100.00;102219.03;5271094;28;20111;-74
2022/03/16 05:24:54;;;;;;;31.63;27.40;;;;;;;3.87;100.00;102212.06;5271809;28;20035;-74
2022/03/16 05:27:26;;;;;;;33.03;26.30;;;;;;;3.85;100.00;102213.84;5272693;28;20085;-74
2022/03/16 05:29:57;;;;;;;31.63;27.57;;;;;;;3.77;100.00;102202.66;5271502;28;20025;-75
2022/03/16 05:32:31;;;;;;;30.07;26.27;;;;;;;3.85;100.00;102203.47;5272947;28;20517;-75
2022/03/16 05:35:03;;;;;;;34.90;29.13;;;;;;;3.82;100.00;102211.25;5270806;28;20115;-74
2022/03/16 05:37:34;;;;;;;30.77;26.13;;;;;;;3.82;100.00;102203.47;5272996;28;20028;-74
2022/03/16 05:40:07;;;;;;;31.83;26.03;;;;;;;3.78;100.00;102201.81;5272376;28;20511;-74
2022/03/16 05:42:39;;;;;;;31.10;25.63;;;;;;;3.84;100.00;102214.72;5271190;28;20055;-74
2022/03/16 05:45:10;;;;;;;30.50;25.23;;;;;;;3.92;100.00;102209.47;5270672;28;20099;-75
2022/03/16 05:47:42;;;;;;;32.23;26.47;;;;;;;3.76;100.00;102208.75;5273219;28;20056;-74
2022/03/16 05:50:13;;;;;;;32.13;25.47;;;;;;;3.79;100.00;102213.88;5280249;28;20020;-75
2022/03/16 05:52:46;;;;;;;31.07;25.80;;;;;;;3.80;100.00;102223.41;5281168;28;20020;-75
2022/03/16 05:55:17;;;;;;;31.70;25.17;;;;;;;3.80;100.00;102231.19;5278593;28;20081;-74
2022/03/16 05:57:50;;;;;;;32.20;24.40;;;;;;;3.85;100.00;102234.59;5293485;28;20239;-75
2022/03/16 06:00:22;;;;;;;31.03;25.70;;;;;;;3.80;100.00;102226.00;5285595;28;20039;-74
2022/03/16 06:02:53;;;;;;;33.63;27.33;;;;;;;3.87;100.00;102235.41;5293094;28;20115;-75
2022/03/16 06:05:25;;;;;;;31.73;25.53;;;;;;;3.77;100.00;102209.59;5293789;28;20554;-73
2022/03/16 06:07:56;;;;;;;31.90;25.17;;;;;;;3.85;100.00;102237.19;5293726;28;20020;-73
2022/03/16 06:10:27;;;;;;;29.50;25.77;;;;;;;3.81;100.00;102235.47;5291990;28;20429;-78
2022/03/16 06:13:00;;;;;;;29.23;25.20;;;;;;;3.81;100.00;102244.97;5293594;28;20474;-78
2022/03/16 06:15:43;;;;;;;34.70;25.97;;;;;;;3.92;100.00;102250.06;5274683;28;20135;-76
2022/03/16 06:18:14;;;;;;;31.80;25.33;;;;;;;3.80;100.00;102248.44;5291670;28;20432;-77
2022/03/16 06:20:45;;;;;;;29.57;26.37;;;;;;;3.85;100.00;102250.13;5265971;28;20029;-73
2022/03/16 06:23:16;;;;;;;30.00;24.97;;;;;;;3.83;100.00;102230.28;5280547;28;20027;-73
2022/03/16 06:25:48;;;;;;;28.63;24.03;;;;;;;3.92;100.00;102245.75;5273110;28;20063;-75
2022/03/16 06:28:19;;;;;;;29.87;25.17;;;;;;;3.91;100.00;102238.84;5267879;28;20024;-73
2022/03/16 06:30:50;;;;;;;28.07;24.90;;;;;;;3.92;99.57;102235.38;5270076;28;20035;-73
2022/03/16 06:33:22;;;;;;;32.53;25.13;;;;;;;4.06;99.46;102253.41;5270992;28;20048;-70
2022/03/16 06:35:53;;;;;;;32.97;25.20;;;;;;;3.93;99.60;102226.72;5270278;28;20028;-74
2022/03/16 06:38:24;;;;;;;26.80;23.00;;;;;;;4.06;99.40;102240.44;5282291;28;20023;-74
2022/03/16 06:40:55;;;;;;;28.07;22.70;;;;;;;4.06;98.69;102237.84;5283755;28;20094;-73
2022/03/16 06:43:27;;;;;;;28.43;23.40;;;;;;;4.08;98.71;102248.19;5267104;28;20021;-77
2022/03/16 06:45:58;;;;;;;29.03;21.93;;;;;;;4.12;98.87;102236.91;5269113;28;20032;-76
2022/03/16 06:48:29;;;;;;;26.10;23.27;;;;;;;4.08;98.94;102233.50;5270440;28;20471;-73
2022/03/16 06:51:01;;;;;;;26.70;22.00;;;;;;;4.10;98.65;102218.78;5270641;28;20028;-73
2022/03/16 06:53:32;;;;;;;31.00;22.73;;;;;;;4.25;98.46;102237.66;5269006;28;20086;-73
2022/03/16 06:56:04;;;;;;;25.80;21.00;;;;;;;4.27;98.56;102230.72;5270583;28;20040;-73
2022/03/16 06:58:35;;;;;;;23.70;20.73;;;;;;;4.28;98.18;102221.19;5268916;28;20544;-73
2022/03/16 07:01:06;;;;;;;26.20;21.90;;;;;;;4.38;98.35;102215.00;5272824;28;20106;-72
2022/03/16 07:03:37;;;;;;;25.20;19.90;;;;;;;4.38;98.75;102214.19;5284160;28;20031;-72
2022/03/16 07:06:10;;;;;;;26.50;19.50;;;;;;;4.39;97.66;102205.50;5270356;28;20032;-75
2022/03/16 07:08:41;;;;;;;25.33;20.27;;;;;;;4.51;97.61;102212.28;5270708;28;20029;-75
2022/03/16 07:11:15;;;;;;;24.87;20.43;;;;;;;4.47;97.65;102208.84;5268648;28;20020;-74
2022/03/16 07:14:30;;;;;;;26.63;19.50;;;;;;;4.63;96.77;102224.25;5268358;28;20051;-75
2022/03/16 07:16:37;;;;;;;22.57;18.90;;;;;;;4.76;95.59;102207.66;5268234;28;20036;-75
2022/03/16 07:19:08;;;;;;;23.53;19.80;;;;;;;4.87;95.56;102215.28;5264478;28;20012;-75
2022/03/16 07:21:40;;;;;;;28.47;19.47;;;;;;;4.97;95.85;102213.44;5269734;28;20021;-75
2022/03/16 07:24:11;;;;;;;20.90;18.03;;;;;;;5.05;94.37;102202.91;5271471;28;20286;-75
2022/03/16 07:26:45;;;;;;;21.63;17.60;;;;;;;5.18;94.23;102204.44;5270628;28;20633;-74
2022/03/16 07:29:17;;;;;;;24.15;17.33;;;;;;;5.30;92.71;102203.44;5283610;28;20025;-74
2022/03/16 07:31:48;;;;;;;23.47;19.07;;;;;;;5.27;92.02;102182.66;5269367;28;20503;-74
2022/03/16 07:34:21;;;;;;;23.40;18.20;;;;;;;5.39;91.89;102205.03;5269366;28;20432;-74
2022/03/16 07:36:53;;;;;;;22.63;18.33;;;;;;;5.55;91.95;102191.78;5269594;28;20093;-74
2022/03/16 07:39:24;;;;;;;22.77;17.73;;;;;;;5.61;89.95;102185.59;5271647;28;20055;-74
2022/03/16 07:41:55;;;;;;;22.97;17.40;;;;;;;5.85;90.81;102194.72;5272519;28;20113;-74
2022/03/16 07:44:27;;;;;;;19.27;17.10;;;;;;;6.04;88.74;102177.03;5276975;28;20024;-73
2022/03/16 07:46:59;;;;;;;20.40;17.60;;;;;;;6.20;87.39;102200.16;5269899;28;20044;-74
2022/03/16 07:49:31;;;;;;;18.57;16.50;;;;;;;6.40;86.71;102201.53;5270170;28;20181;-70
2022/03/16 07:52:02;;;;;;;21.10;16.57;;;;;;;6.51;85.11;102193.50;5270221;28;20532;-73
2022/03/16 07:54:33;;;;;;;22.40;16.50;;;;;;;6.60;84.06;102187.22;5268683;28;20028;-72
2022/03/16 07:57:05;;;;;;;19.20;15.60;;;;;;;6.72;83.57;102193.94;5270101;28;20067;-72
2022/03/16 07:59:36;;;;;;;17.80;15.83;;;;;;;7.04;82.53;102204.50;5250855;28;20028;-72
2022/03/16 08:02:07;;;;;;;20.00;15.67;;;;;;;7.28;80.81;102210.06;5270470;28;20021;-72
2022/03/16 08:04:38;;;;;;;17.37;15.10;;;;;;;7.33;79.44;102208.19;5268781;28;20028;-73
2022/03/16 08:07:10;;;;;;;17.93;14.97;;;;;;;7.70;78.78;102202.06;5270346;28;20028;-74
2022/03/16 08:09:41;;;;;;;19.80;15.03;;;;;;;7.98;76.29;102206.53;5269757;28;20043;-72
2022/03/16 08:12:13;;;;;;;16.87;14.73;;;;;;;8.27;75.02;102216.22;5266512;28;20474;-73
2022/03/16 08:14:44;;;;;;;17.33;14.27;;;;;;;8.44;74.63;102203.56;5266515;28;20421;-72
2022/03/16 08:17:16;;;;;;;15.40;13.83;;;;;;;8.51;73.54;102209.47;5268251;28;20426;-74
2022/03/16 08:19:48;;;;;;;17.07;14.03;;;;;;;8.57;73.22;102198.00;5268522;28;20082;-76
2022/03/16 08:22:30;;;;;;;22.37;14.80;;;;;;;9.00;73.11;102206.31;5268794;28;20052;-78
2022/03/16 08:25:04;;;;;;;17.40;15.13;;;;;;;9.47;69.87;102204.81;5268894;28;20007;-74
2022/03/16 08:27:37;;;;;;;18.13;14.77;;;;;;;9.74;68.46;102199.53;5268734;28;20038;-74
2022/03/16 08:30:09;;;;;;;15.67;13.90;;;;;;;10.52;65.76;102204.66;5265990;28;20025;-74
2022/03/16 08:32:42;;;;;;;16.70;13.83;;;;;;;10.70;63.89;102207.47;5271383;28;20025;-74
2022/03/16 08:35:13;;;;;;;17.23;13.90;;;;;;;10.78;62.46;102181.00;5272453;28;20103;-74
2022/03/16 08:37:44;;;;;;;14.90;13.23;;;;;;;11.27;61.46;102200.91;5272807;28;20108;-74
2022/03/16 08:40:16;;;;;;;19.57;14.40;;;;;;;11.58;59.64;102194.38;5271864;28;20024;-74
2022/03/16 08:42:49;;;;;;;16.63;13.33;;;;;;;11.83;58.94;102202.97;5270683;28;20029;-73
2022/03/16 08:45:20;;;;;;;20.77;13.10;;;;;;;11.99;57.84;102203.13;5272681;28;20544;-75
2022/03/16 08:47:51;;;;;;;15.97;14.37;;;;;;;11.92;58.48;102202.56;5272976;28;20024;-73
2022/03/16 08:50:24;;;;;;;14.57;12.73;;;;;;;12.36;56.46;102205.09;5272230;28;20208;-73
2022/03/16 08:52:56;;;;;;;13.17;11.33;;;;;;;13.33;53.36;102226.84;5271724;28;20074;-73
2022/03/16 08:55:27;;;;;;;15.77;12.20;;;;;;;12.92;55.11;102218.25;5272042;28;20013;-76
2022/03/16 08:57:58;;;;;;;16.07;12.00;;;;;;;13.87;52.52;102220.66;5267833;28;20458;-74
2022/03/16 09:00:29;;;;;;;13.20;11.13;;;;;;;14.61;49.81;102225.56;5271297;28;20012;-72
2022/03/16 09:03:02;;;;;;;17.03;13.80;;;;;;;14.62;49.61;102222.84;5271329;28;20036;-73
2022/03/16 09:05:34;;;;;;;18.23;13.67;;;;;;;14.40;48.71;102223.16;5271555;28;20032;-72
2022/03/16 09:08:05;;;;;;;15.10;12.67;;;;;;;14.84;48.56;102228.72;5259240;28;21190;-72
2022/03/16 09:10:38;;;;;;;16.30;13.33;;;;;;;14.45;49.17;102221.13;5260532;28;20044;-72
2022/03/16 09:13:09;;;;;;;15.93;13.50;;;;;;;15.03;48.90;102219.81;5261930;28;20063;-72
2022/03/16 09:15:40;;;;;;;21.10;13.87;;;;;;;15.24;48.52;102223.84;5262618;28;20123;-72
2022/03/16 09:18:11;;;;;;;16.30;13.00;;;;;;;16.20;45.72;102221.75;5258633;28;20475;-72
2022/03/16 09:20:43;;;;;;;14.73;13.23;;;;;;;16.60;44.92;102233.38;5260192;28;20052;-72
2022/03/16 09:23:14;;;;;;;15.50;13.90;;;;;;;15.54;45.98;102222.13;5267498;28;20209;-71
2022/03/16 09:25:45;;;;;;;20.83;14.97;;;;;;;15.21;46.32;102229.28;5270804;28;20037;-72
2022/03/16 09:28:17;;;;;;;14.93;13.43;;;;;;;15.60;46.75;102218.28;5268596;28;20040;-72
2022/03/16 09:30:49;;;;;;;16.03;14.30;;;;;;;16.03;45.55;102220.16;5270942;28;20016;-72
2022/03/16 09:33:22;;;;;;;16.63;14.50;;;;;;;16.31;45.14;102207.88;5269976;28;20032;-72
2022/03/16 09:35:53;;;;;;;16.17;14.57;;;;;;;15.34;45.73;102213.56;5272837;28;20536;-72
2022/03/16 09:38:24;;;;;;;14.87;13.27;;;;;;;16.25;44.27;102207.41;5270286;28;20273;-72
2022/03/16 09:40:57;;;;;;;15.57;13.97;;;;;;;17.27;43.29;102217.69;5271835;28;20490;-72
2022/03/16 09:43:33;;;;;;;14.23;12.73;;;;;;;17.81;42.00;102213.19;5269587;28;20112;-72
2022/03/16 09:46:04;;;;;;;16.90;13.03;;;;;;;18.20;40.56;102207.03;5269777;28;20111;-72
2022/03/16 09:48:37;;;;;;;15.57;12.93;;;;;;;17.75;40.87;102208.34;5272380;28;20103;-72
2022/03/16 09:51:10;;;;;;;17.63;13.00;;;;;;;17.49;42.14;102192.44;5271217;28;20020;-72
2022/03/16 09:53:42;;;;;;;15.33;13.70;;;;;;;17.30;42.02;102198.94;5271691;28;20024;-72
2022/03/16 09:56:14;;;;;;;14.80;13.30;;;;;;;17.68;41.80;102188.50;5271467;28;20021;-72
2022/03/16 09:58:46;;;;;;;16.77;12.07;;;;;;;19.40;39.09;102189.53;5270569;28;20032;-72
2022/03/16 10:01:18;;;;;;;14.95;12.95;;;;;;;19.42;38.69;102193.78;5271720;28;20034;-73
2022/03/16 10:03:50;;;;;;;14.05;11.95;;;;;;;18.17;39.09;102201.97;5271766;28;20069;-72
2022/03/16 10:06:22;;;;;;;15.88;13.35;;;;;;;17.65;40.74;102187.75;5271048;28;20051;-73
2022/03/16 10:14:37;;;;;;;14.70;12.68;;;;;;;18.01;40.22;102181.81;5269910;28;20048;-72
2022/03/16 10:20:06;;;;;;;14.02;12.10;;;;;;;17.60;41.21;102171.34;5250596;28;20522;-72
2022/03/16 10:22:40;;;;;;;14.13;12.73;;;;;;;17.87;40.61;102173.00;5253102;28;20017;-72
2022/03/16 10:25:13;;;;;;;16.23;14.40;;;;;;;17.33;41.01;102177.56;5250452;28;20243;-72
2022/03/16 10:27:44;;;;;;;13.70;11.43;;;;;;;17.79;40.36;102170.06;5249399;28;20268;-72
2022/03/16 10:30:16;;;;;;;14.45;11.68;;;;;;;17.65;41.23;102169.22;5249608;28;20024;-72
2022/03/16 10:32:54;;;;;;;12.65;11.40;;;;;;;18.10;41.38;102170.53;5271548;28;20537;-72
2022/03/16 10:35:26;;;;;;;12.32;11.02;;;;;;;18.66;40.56;102171.03;5270890;28;20879;-73
2022/03/16 10:38:08;;;;;;;12.38;11.07;;;;;;;18.56;41.48;102168.22;5270049;28;20040;-79
2022/03/16 10:40:40;;;;;;;12.93;11.02;;;;;;;18.79;39.66;102170.13;5270260;28;20133;-76
2022/03/16 10:46:34;;;;;;;12.77;11.63;;;;;;;16.98;43.64;102162.22;5271615;28;20032;-72
2022/03/16 10:49:10;;;;;;;14.93;12.83;;;;;;;16.28;44.63;102165.75;5262248;28;20035;-71
2022/03/16 10:51:44;;;;;;;15.60;13.17;;;;;;;15.54;46.46;102153.47;5270035;28;20047;-72
2022/03/16 10:54:16;;;;;;;14.35;12.27;;;;;;;14.97;48.41;102148.00;5269989;28;20024;-72
2022/03/16 10:56:49;;;;;;;11.87;10.67;;;;;;;15.15;48.35;102147.00;5271524;28;20021;-72
2022/03/16 10:59:26;;;;;;;16.20;11.43;;;;;;;14.77;49.27;102149.09;5269621;28;20245;-72
2022/03/16 11:02:19;;;;;;;16.23;10.23;;;;;;;15.29;48.70;102160.22;5269528;28;20073;-74
2022/03/16 11:04:50;;;;;;;13.73;10.47;;;;;;;15.93;47.56;102155.56;5289744;28;20027;-72
2022/03/16 11:07:22;;;;;;;11.53;10.27;;;;;;;15.38;47.72;102152.72;5274082;28;20537;-72
2022/03/16 11:09:54;;;;;;;12.17;10.97;;;;;;;15.68;48.06;102142.06;5292625;28;20020;-73
2022/03/16 11:15:18;;;;;;;11.70;10.33;;;;;;;15.84;47.28;102151.69;5291592;28;20072;-72
2022/03/16 11:17:51;;;;;;;11.43;10.20;;;;;;;15.70;47.39;102158.69;5292128;28;20020;-72
2022/03/16 11:20:24;;;;;;;16.47;11.13;;;;;;;15.02;48.97;102145.06;5290109;28;20008;-76
2022/03/16 11:26:25;;;;;;;12.80;11.10;;;;;;;14.78;50.50;102171.91;5292663;28;20040;-72
2022/03/16 11:28:57;;;;;;;15.50;11.33;;;;;;;14.78;51.24;102160.50;5289997;28;20032;-71
2022/03/16 11:31:34;;;;;;;12.53;9.53;;;;;;;15.34;50.02;102154.69;5292403;28;20105;-72
2022/03/16 11:34:08;;;;;;;23.67;10.10;;;;;;;15.38;50.12;102156.19;5291175;28;20411;-73
2022/03/16 11:36:41;;;;;;;13.77;11.18;;;;;;;15.19;49.70;102159.06;5292413;28;20036;-73
2022/03/16 11:39:20;;;;;;;13.03;11.23;;;;;;;15.21;50.16;102165.09;5281938;28;20116;-72
2022/03/16 11:41:55;;;;;;;11.80;10.50;;;;;;;14.80;51.13;102166.53;5269782;28;20525;-73
2022/03/16 11:44:28;;;;;;;15.53;11.70;;;;;;;14.41;51.94;102164.25;5268032;28;20033;-71
2022/03/16 11:47:13;;;;;;;13.83;12.07;;;;;;;14.28;52.71;102167.56;5271279;28;20025;-72
2022/03/16 11:50:14;;;;;;;13.38;11.20;;;;;;;14.62;52.40;102158.72;5269275;28;20130;-72
2022/03/16 11:53:00;;;;;;;12.87;11.50;;;;;;;14.59;52.65;102159.72;5270705;28;20023;-71
2022/03/16 11:55:45;;;;;;;12.23;10.90;;;;;;;14.31;53.29;102161.28;5270108;28;20044;-75